sensor_id;sensor_type;location;lat;lon;timestamp;pressure;altitude;pressure_sealevel;temperature;humidity
71306;BME280;59097;46.858;18.632;2023-05-01T00:00:15;100671.16;;;10.50;85.31
71306;BME280;59097;46.858;18.632;2023-05-01T00:02:45;100664.50;;;10.54;85.56
71306;BME280;59097;46.858;18.632;2023-05-01T00:05:14;100647.66;;;10.61;86.06
71306;BME280;59097;46.858;18.632;2023-05-01T00:07:42;100659.81;;;10.85;86.08
71306;BME280;59097;46.858;18.632;2023-05-01T00:10:11;100640.13;;;10.94;86.65
71306;BME280;59097;46.858;18.632;2023-05-01T00:12:39;100652.25;;;11.18;87.13
71306;BME280;59097;46.858;18.632;2023-05-01T00:15:22;100649.75;;;11.31;86.05
71306;BME280;59097;46.858;18.632;2023-05-01T00:18:14;100645.41;;;11.45;86.36
71306;BME280;59097;46.858;18.632;2023-05-01T00:20:40;100634.63;;;11.53;85.72
71306;BME280;59097;46.858;18.632;2023-05-01T00:23:07;100620.56;;;11.52;86.19
71306;BME280;59097;46.858;18.632;2023-05-01T00:25:33;100624.41;;;11.71;86.70
71306;BME280;59097;46.858;18.632;2023-05-01T00:27:59;100620.75;;;11.72;86.92
71306;BME280;59097;46.858;18.632;2023-05-01T00:30:26;100628.22;;;11.83;87.72
71306;BME280;59097;46.858;18.632;2023-05-01T00:33:01;100640.63;;;12.66;84.09
71306;BME280;59097;46.858;18.632;2023-05-01T00:35:29;100640.63;;;12.66;84.09
71306;BME280;59097;46.858;18.632;2023-05-01T00:37:58;100651.72;;;12.07;86.54
71306;BME280;59097;46.858;18.632;2023-05-01T00:40:26;100652.78;;;12.13;86.19
71306;BME280;59097;46.858;18.632;2023-05-01T00:42:54;100662.19;;;12.15;86.65
71306;BME280;59097;46.858;18.632;2023-05-01T00:45:24;100651.94;;;12.12;87.39
71306;BME280;59097;46.858;18.632;2023-05-01T00:47:52;100659.94;;;12.12;87.46
71306;BME280;59097;46.858;18.632;2023-05-01T00:50:36;100654.16;;;12.09;87.89
71306;BME280;59097;46.858;18.632;2023-05-01T00:53:19;100637.31;;;11.95;87.72
71306;BME280;59097;46.858;18.632;2023-05-01T00:56:16;100660.94;;;12.11;86.87
71306;BME280;59097;46.858;18.632;2023-05-01T00:58:58;100652.16;;;12.11;86.39
71306;BME280;59097;46.858;18.632;2023-05-01T01:01:24;100663.22;;;12.14;85.96
71306;BME280;59097;46.858;18.632;2023-05-01T01:03:51;100664.03;;;12.15;86.03
71306;BME280;59097;46.858;18.632;2023-05-01T01:09:22;100653.78;;;12.12;85.83
71306;BME280;59097;46.858;18.632;2023-05-01T01:14:39;100666.75;;;12.49;84.85
71306;BME280;59097;46.858;18.632;2023-05-01T01:17:26;100647.41;;;11.64;87.74
71306;BME280;59097;46.858;18.632;2023-05-01T01:34:49;100668.47;;;11.65;89.04
71306;BME280;59097;46.858;18.632;2023-05-01T01:37:21;100668.78;;;11.56;88.80
71306;BME280;59097;46.858;18.632;2023-05-01T01:39:56;100642.28;;;11.41;88.60
71306;BME280;59097;46.858;18.632;2023-05-01T01:42:33;100652.88;;;11.20;90.02
71306;BME280;59097;46.858;18.632;2023-05-01T01:45:04;100660.72;;;11.28;90.49
71306;BME280;59097;46.858;18.632;2023-05-01T01:47:42;100661.91;;;12.04;87.35
71306;BME280;59097;46.858;18.632;2023-05-01T01:50:13;100661.91;;;12.04;87.35
71306;BME280;59097;46.858;18.632;2023-05-01T01:52:44;100667.81;;;11.42;89.73
71306;BME280;59097;46.858;18.632;2023-05-01T01:55:16;100671.75;;;11.46;88.88
71306;BME280;59097;46.858;18.632;2023-05-01T01:57:49;100661.19;;;11.53;88.90
71306;BME280;59097;46.858;18.632;2023-05-01T02:00:19;100667.59;;;11.58;87.59
71306;BME280;59097;46.858;18.632;2023-05-01T02:02:49;100669.41;;;11.72;84.17
71306;BME280;59097;46.858;18.632;2023-05-01T02:05:20;100643.75;;;11.65;83.51
71306;BME280;59097;46.858;18.632;2023-05-01T02:07:51;100666.19;;;11.77;83.11
71306;BME280;59097;46.858;18.632;2023-05-01T02:10:34;100663.78;;;11.82;80.87
71306;BME280;59097;46.858;18.632;2023-05-01T02:13:18;100653.06;;;11.75;79.53
71306;BME280;59097;46.858;18.632;2023-05-01T02:15:46;100654.34;;;11.79;79.22
71306;BME280;59097;46.858;18.632;2023-05-01T02:18:13;100659.41;;;11.74;78.46
71306;BME280;59097;46.858;18.632;2023-05-01T02:20:41;100666.88;;;11.85;78.26
71306;BME280;59097;46.858;18.632;2023-05-01T02:23:08;100669.97;;;11.89;77.06
71306;BME280;59097;46.858;18.632;2023-05-01T02:25:41;100657.34;;;12.53;71.76
71306;BME280;59097;46.858;18.632;2023-05-01T02:28:12;100657.34;;;12.53;71.76
71306;BME280;59097;46.858;18.632;2023-05-01T02:30:41;100656.28;;;11.92;67.50
71306;BME280;59097;46.858;18.632;2023-05-01T02:33:09;100655.09;;;11.94;66.18
71306;BME280;59097;46.858;18.632;2023-05-01T02:35:41;100652.81;;;11.91;66.38
71306;BME280;59097;46.858;18.632;2023-05-01T02:38:11;100653.19;;;11.88;63.48
71306;BME280;59097;46.858;18.632;2023-05-01T02:40:43;100647.44;;;11.85;63.40
71306;BME280;59097;46.858;18.632;2023-05-01T02:43:15;100644.16;;;11.83;63.73
71306;BME280;59097;46.858;18.632;2023-05-01T02:45:47;100625.16;;;11.65;63.71
71306;BME280;59097;46.858;18.632;2023-05-01T02:48:31;100648.56;;;11.76;63.72
71306;BME280;59097;46.858;18.632;2023-05-01T02:51:19;100631.28;;;11.65;64.07
71306;BME280;59097;46.858;18.632;2023-05-01T02:53:46;100632.09;;;11.66;64.06
71306;BME280;59097;46.858;18.632;2023-05-01T02:56:12;100637.63;;;11.64;64.07
71306;BME280;59097;46.858;18.632;2023-05-01T02:58:38;100622.00;;;11.55;64.26
71306;BME280;59097;46.858;18.632;2023-05-01T03:01:05;100632.19;;;11.51;63.95
71306;BME280;59097;46.858;18.632;2023-05-01T03:03:38;100631.03;;;12.03;62.70
71306;BME280;59097;46.858;18.632;2023-05-01T03:06:06;100631.03;;;12.03;62.70
71306;BME280;59097;46.858;18.632;2023-05-01T03:08:35;100636.16;;;11.41;64.54
71306;BME280;59097;46.858;18.632;2023-05-01T03:11:06;100629.34;;;11.31;65.09
71306;BME280;59097;46.858;18.632;2023-05-01T03:13:35;100638.66;;;11.27;64.29
71306;BME280;59097;46.858;18.632;2023-05-01T03:16:03;100592.97;;;10.96;64.49
71306;BME280;59097;46.858;18.632;2023-05-01T03:18:31;100639.97;;;11.17;64.49
71306;BME280;59097;46.858;18.632;2023-05-01T03:20:59;100641.09;;;11.08;65.07
71306;BME280;59097;46.858;18.632;2023-05-01T03:23:42;100636.00;;;11.06;64.86
71306;BME280;59097;46.858;18.632;2023-05-01T03:26:53;100624.41;;;10.93;64.88
71306;BME280;59097;46.858;18.632;2023-05-01T03:29:50;100596.59;;;10.74;64.89
71306;BME280;59097;46.858;18.632;2023-05-01T03:32:17;100599.25;;;10.74;65.04
71306;BME280;59097;46.858;18.632;2023-05-01T03:34:43;100652.94;;;10.91;64.33
71306;BME280;59097;46.858;18.632;2023-05-01T03:37:10;100632.00;;;10.81;64.99
71306;BME280;59097;46.858;18.632;2023-05-01T03:39:36;100630.37;;;10.80;64.61
71306;BME280;59097;46.858;18.632;2023-05-01T03:42:03;100640.25;;;10.71;66.05
71306;BME280;59097;46.858;18.632;2023-05-01T03:44:36;100656.81;;;11.24;66.60
71306;BME280;59097;46.858;18.632;2023-05-01T03:47:05;100656.81;;;11.24;66.60
71306;BME280;59097;46.858;18.632;2023-05-01T03:49:33;100663.22;;;10.50;70.06
71306;BME280;59097;46.858;18.632;2023-05-01T03:52:01;100661.28;;;10.44;70.21
71306;BME280;59097;46.858;18.632;2023-05-01T03:54:30;100662.38;;;10.35;70.76
71306;BME280;59097;46.858;18.632;2023-05-01T03:56:58;100662.53;;;10.33;71.19
71306;BME280;59097;46.858;18.632;2023-05-01T03:59:27;100666.38;;;10.31;71.88
71306;BME280;59097;46.858;18.632;2023-05-01T04:01:55;100664.72;;;10.30;72.15
71306;BME280;59097;46.858;18.632;2023-05-01T04:04:23;100669.22;;;10.29;71.25
71306;BME280;59097;46.858;18.632;2023-05-01T04:06:52;100668.31;;;10.37;71.20
71306;BME280;59097;46.858;18.632;2023-05-01T04:09:35;100672.59;;;10.38;70.61
71306;BME280;59097;46.858;18.632;2023-05-01T04:12:32;100671.81;;;10.37;70.96
71306;BME280;59097;46.858;18.632;2023-05-01T04:15:18;100670.78;;;10.38;70.25
71306;BME280;59097;46.858;18.632;2023-05-01T04:17:45;100677.91;;;10.38;71.22
71306;BME280;59097;46.858;18.632;2023-05-01T04:20:12;100676.28;;;10.51;69.42
71306;BME280;59097;46.858;18.632;2023-05-01T04:22:38;100663.75;;;10.60;67.84
71306;BME280;59097;46.858;18.632;2023-05-01T04:25:05;100672.62;;;10.67;67.81
71306;BME280;59097;46.858;18.632;2023-05-01T04:27:32;100677.91;;;10.82;68.40
71306;BME280;59097;46.858;18.632;2023-05-01T04:29:58;100616.94;;;11.38;64.47
71306;BME280;59097;46.858;18.632;2023-05-01T04:32:31;100673.22;;;12.40;62.09
71306;BME280;59097;46.858;18.632;2023-05-01T04:35:00;100673.22;;;12.40;62.09
71306;BME280;59097;46.858;18.632;2023-05-01T04:37:28;100677.41;;;12.00;63.18
71306;BME280;59097;46.858;18.632;2023-05-01T04:39:56;100672.97;;;12.35;59.74
71306;BME280;59097;46.858;18.632;2023-05-01T04:42:31;100665.47;;;11.89;61.15
71306;BME280;59097;46.858;18.632;2023-05-01T04:44:59;100673.97;;;12.61;60.53
71306;BME280;59097;46.858;18.632;2023-05-01T04:47:32;100674.63;;;12.36;58.77
71306;BME280;59097;46.858;18.632;2023-05-01T04:50:00;100666.94;;;12.82;57.42
71306;BME280;59097;46.858;18.632;2023-05-01T04:52:30;100679.34;;;13.09;54.50
71306;BME280;59097;46.858;18.632;2023-05-01T04:55:42;100688.28;;;14.93;51.22
71306;BME280;59097;46.858;18.632;2023-05-01T04:58:23;100674.56;;;19.00;41.38
71306;BME280;59097;46.858;18.632;2023-05-01T05:00:49;100681.50;;;18.27;41.03
71306;BME280;59097;46.858;18.632;2023-05-01T05:03:15;100682.75;;;20.95;36.03
71306;BME280;59097;46.858;18.632;2023-05-01T05:05:44;100692.72;;;21.38;35.80
71306;BME280;59097;46.858;18.632;2023-05-01T05:08:11;100691.00;;;16.74;41.47
71306;BME280;59097;46.858;18.632;2023-05-01T05:10:44;100686.31;;;16.02;45.18
71306;BME280;59097;46.858;18.632;2023-05-01T05:13:14;100686.31;;;16.02;45.18
71306;BME280;59097;46.858;18.632;2023-05-01T05:15:42;100678.31;;;13.64;48.63
71306;BME280;59097;46.858;18.632;2023-05-01T05:18:10;100684.72;;;14.02;49.54
71306;BME280;59097;46.858;18.632;2023-05-01T05:20:38;100700.06;;;13.94;49.51
71306;BME280;59097;46.858;18.632;2023-05-01T05:23:06;100700.72;;;14.02;50.18
71306;BME280;59097;46.858;18.632;2023-05-01T05:25:35;100699.09;;;14.08;49.92
71306;BME280;59097;46.858;18.632;2023-05-01T05:28:03;100697.00;;;13.90;49.84
71306;BME280;59097;46.858;18.632;2023-05-01T05:30:45;100707.47;;;14.05;49.59
71306;BME280;59097;46.858;18.632;2023-05-01T05:33:57;100705.09;;;13.36;49.32
71306;BME280;59097;46.858;18.632;2023-05-01T05:36:23;100708.50;;;13.23;49.07
71306;BME280;59097;46.858;18.632;2023-05-01T05:38:50;100693.50;;;13.16;48.55
71306;BME280;59097;46.858;18.632;2023-05-01T05:41:16;100707.47;;;13.92;48.81
71306;BME280;59097;46.858;18.632;2023-05-01T05:43:42;100709.53;;;13.90;46.35
71306;BME280;59097;46.858;18.632;2023-05-01T05:46:08;100720.31;;;13.55;46.46
71306;BME280;59097;46.858;18.632;2023-05-01T05:48:41;100724.94;;;14.33;44.55
71306;BME280;59097;46.858;18.632;2023-05-01T05:51:10;100724.94;;;14.33;44.55
71306;BME280;59097;46.858;18.632;2023-05-01T05:53:38;100725.50;;;13.76;45.21
71306;BME280;59097;46.858;18.632;2023-05-01T05:56:06;100717.53;;;13.90;45.54
71306;BME280;59097;46.858;18.632;2023-05-01T05:58:34;100719.00;;;14.31;46.19
71306;BME280;59097;46.858;18.632;2023-05-01T06:01:03;100716.09;;;14.59;46.01
71306;BME280;59097;46.858;18.632;2023-05-01T06:03:34;100728.44;;;14.34;44.64
71306;BME280;59097;46.858;18.632;2023-05-01T06:06:03;100732.34;;;14.44;45.03
71306;BME280;59097;46.858;18.632;2023-05-01T06:08:32;100735.41;;;14.41;44.92
71306;BME280;59097;46.858;18.632;2023-05-01T06:11:16;100721.41;;;13.87;44.85
71306;BME280;59097;46.858;18.632;2023-05-01T06:13:58;100682.84;;;13.96;44.26
71306;BME280;59097;46.858;18.632;2023-05-01T06:16:25;100727.63;;;14.53;43.22
71306;BME280;59097;46.858;18.632;2023-05-01T06:18:51;100725.56;;;14.42;42.81
71306;BME280;59097;46.858;18.632;2023-05-01T06:21:18;100732.09;;;14.72;43.09
71306;BME280;59097;46.858;18.632;2023-05-01T06:23:44;100730.84;;;14.94;42.50
71306;BME280;59097;46.858;18.632;2023-05-01T06:26:10;100723.09;;;14.60;41.48
71306;BME280;59097;46.858;18.632;2023-05-01T06:28:44;100730.25;;;14.79;40.97
71306;BME280;59097;46.858;18.632;2023-05-01T06:31:26;100730.25;;;14.79;40.97
71306;BME280;59097;46.858;18.632;2023-05-01T06:33:54;100727.16;;;14.76;41.12
71306;BME280;59097;46.858;18.632;2023-05-01T06:36:23;100735.97;;;14.89;40.65
71306;BME280;59097;46.858;18.632;2023-05-01T06:38:51;100731.69;;;14.82;40.19
71306;BME280;59097;46.858;18.632;2023-05-01T06:41:20;100737.47;;;14.66;39.46
71306;BME280;59097;46.858;18.632;2023-05-01T06:43:48;100682.44;;;14.58;39.51
71306;BME280;59097;46.858;18.632;2023-05-01T06:46:16;100737.75;;;15.15;39.54
71306;BME280;59097;46.858;18.632;2023-05-01T06:48:46;100736.09;;;15.14;38.69
71306;BME280;59097;46.858;18.632;2023-05-01T06:51:14;100732.41;;;15.08;38.34
71306;BME280;59097;46.858;18.632;2023-05-01T06:54:11;100736.34;;;15.13;39.15
71306;BME280;59097;46.858;18.632;2023-05-01T06:56:37;100719.47;;;15.05;39.05
71306;BME280;59097;46.858;18.632;2023-05-01T06:59:04;100729.16;;;15.57;39.97
71306;BME280;59097;46.858;18.632;2023-05-01T07:01:31;100732.50;;;15.46;38.85
71306;BME280;59097;46.858;18.632;2023-05-01T07:03:57;100737.12;;;15.70;39.30
71306;BME280;59097;46.858;18.632;2023-05-01T07:06:29;100730.94;;;16.57;37.56
71306;BME280;59097;46.858;18.632;2023-05-01T07:09:00;100730.94;;;16.57;37.56
71306;BME280;59097;46.858;18.632;2023-05-01T07:11:28;100744.16;;;15.96;37.41
71306;BME280;59097;46.858;18.632;2023-05-01T07:13:56;100714.72;;;15.65;38.43
71306;BME280;59097;46.858;18.632;2023-05-01T07:16:24;100743.06;;;15.72;37.86
71306;BME280;59097;46.858;18.632;2023-05-01T07:18:53;100742.37;;;15.46;37.10
71306;BME280;59097;46.858;18.632;2023-05-01T07:21:21;100739.97;;;16.07;37.68
71306;BME280;59097;46.858;18.632;2023-05-01T07:23:49;100741.41;;;16.09;36.56
71306;BME280;59097;46.858;18.632;2023-05-01T07:26:18;100704.31;;;16.13;36.48
71306;BME280;59097;46.858;18.632;2023-05-01T07:29:14;100733.38;;;16.34;35.28
71306;BME280;59097;46.858;18.632;2023-05-01T07:31:41;100730.88;;;16.14;34.87
71306;BME280;59097;46.858;18.632;2023-05-01T07:34:07;100715.66;;;16.33;35.74
71306;BME280;59097;46.858;18.632;2023-05-01T07:36:34;100728.69;;;16.29;36.42
71306;BME280;59097;46.858;18.632;2023-05-01T07:39:00;100715.66;;;15.84;35.16
71306;BME280;59097;46.858;18.632;2023-05-01T07:41:26;100711.31;;;16.14;35.20
71306;BME280;59097;46.858;18.632;2023-05-01T07:43:59;100727.47;;;17.47;34.62
71306;BME280;59097;46.858;18.632;2023-05-01T07:46:28;100727.47;;;17.47;34.62
71306;BME280;59097;46.858;18.632;2023-05-01T07:48:56;100730.00;;;16.70;33.51
71306;BME280;59097;46.858;18.632;2023-05-01T07:51:24;100731.50;;;16.66;34.23
71306;BME280;59097;46.858;18.632;2023-05-01T07:53:52;100733.81;;;17.17;33.37
71306;BME280;59097;46.858;18.632;2023-05-01T07:56:20;100727.63;;;17.52;33.06
71306;BME280;59097;46.858;18.632;2023-05-01T07:58:48;100732.34;;;19.77;30.37
71306;BME280;59097;46.858;18.632;2023-05-01T08:01:17;100735.19;;;22.22;26.02
71306;BME280;59097;46.858;18.632;2023-05-01T08:03:56;100735.78;;;23.80;24.92
71306;BME280;59097;46.858;18.632;2023-05-01T08:06:37;100728.69;;;25.69;21.40
71306;BME280;59097;46.858;18.632;2023-05-01T08:09:04;100734.88;;;25.21;22.79
71306;BME280;59097;46.858;18.632;2023-05-01T08:11:30;100722.34;;;25.84;22.16
71306;BME280;59097;46.858;18.632;2023-05-01T08:13:58;100695.03;;;25.65;21.26
71306;BME280;59097;46.858;18.632;2023-05-01T08:16:24;100719.75;;;26.70;21.61
71306;BME280;59097;46.858;18.632;2023-05-01T08:19:10;100717.28;;;27.82;20.26
71306;BME280;59097;46.858;18.632;2023-05-01T08:21:42;100715.19;;;27.92;19.83
71306;BME280;59097;46.858;18.632;2023-05-01T08:24:11;100715.19;;;27.92;19.83
71306;BME280;59097;46.858;18.632;2023-05-01T08:26:39;100712.72;;;23.57;24.13
71306;BME280;59097;46.858;18.632;2023-05-01T08:29:07;100704.00;;;22.46;24.45
71306;BME280;59097;46.858;18.632;2023-05-01T08:31:35;100717.63;;;22.25;24.97
71306;BME280;59097;46.858;18.632;2023-05-01T08:34:04;100703.00;;;23.76;24.18
71306;BME280;59097;46.858;18.632;2023-05-01T08:36:33;100672.94;;;24.33;23.14
71306;BME280;59097;46.858;18.632;2023-05-01T08:39:01;100691.66;;;22.55;25.55
71306;BME280;59097;46.858;18.632;2023-05-01T08:41:48;100706.75;;;23.55;24.88
71306;BME280;59097;46.858;18.632;2023-05-01T08:44:46;100705.88;;;22.78;24.35
71306;BME280;59097;46.858;18.632;2023-05-01T08:47:29;100700.12;;;23.21;24.50
71306;BME280;59097;46.858;18.632;2023-05-01T08:49:56;100717.34;;;23.67;23.05
71306;BME280;59097;46.858;18.632;2023-05-01T08:52:24;100701.37;;;22.56;24.28
71306;BME280;59097;46.858;18.632;2023-05-01T08:54:53;100719.81;;;23.78;22.53
71306;BME280;59097;46.858;18.632;2023-05-01T08:57:29;100706.28;;;23.89;23.87
71306;BME280;59097;46.858;18.632;2023-05-01T08:59:59;100706.28;;;23.89;23.87
71306;BME280;59097;46.858;18.632;2023-05-01T09:02:28;100671.31;;;22.95;24.19
71306;BME280;59097;46.858;18.632;2023-05-01T09:04:59;100721.19;;;24.01;23.62
71306;BME280;59097;46.858;18.632;2023-05-01T09:07:28;100712.91;;;22.10;24.64
71306;BME280;59097;46.858;18.632;2023-05-01T09:09:56;100717.66;;;23.08;24.04
71306;BME280;59097;46.858;18.632;2023-05-01T09:12:26;100713.41;;;22.39;24.59
71306;BME280;59097;46.858;18.632;2023-05-01T09:14:55;100709.50;;;22.62;24.49
71306;BME280;59097;46.858;18.632;2023-05-01T09:17:38;100679.56;;;22.63;25.67
71306;BME280;59097;46.858;18.632;2023-05-01T09:20:36;100716.25;;;22.96;25.25
71306;BME280;59097;46.858;18.632;2023-05-01T09:23:18;100706.72;;;22.46;26.06
71306;BME280;59097;46.858;18.632;2023-05-01T09:25:45;100721.78;;;22.74;26.93
71306;BME280;59097;46.858;18.632;2023-05-01T09:28:12;100712.56;;;21.75;27.35
71306;BME280;59097;46.858;18.632;2023-05-01T09:30:38;100712.00;;;24.17;25.94
71306;BME280;59097;46.858;18.632;2023-05-01T09:33:14;100697.00;;;22.45;27.52
71306;BME280;59097;46.858;18.632;2023-05-01T09:35:55;100697.00;;;22.45;27.52
71306;BME280;59097;46.858;18.632;2023-05-01T09:38:26;100702.84;;;20.16;29.77
71306;BME280;59097;46.858;18.632;2023-05-01T09:41:03;100702.31;;;19.85;30.53
71306;BME280;59097;46.858;18.632;2023-05-01T09:43:31;100700.12;;;19.82;31.62
71306;BME280;59097;46.858;18.632;2023-05-01T09:46:07;100702.25;;;19.97;32.39
71306;BME280;59097;46.858;18.632;2023-05-01T09:48:40;100697.81;;;19.74;32.30
71306;BME280;59097;46.858;18.632;2023-05-01T09:51:25;100684.00;;;19.54;32.49
71306;BME280;59097;46.858;18.632;2023-05-01T09:53:58;100694.09;;;19.92;32.34
71306;BME280;59097;46.858;18.632;2023-05-01T09:56:45;100694.31;;;19.74;33.04
71306;BME280;59097;46.858;18.632;2023-05-01T10:00:00;100687.44;;;19.66;33.04
71306;BME280;59097;46.858;18.632;2023-05-01T10:02:27;100648.75;;;19.39;32.93
71306;BME280;59097;46.858;18.632;2023-05-01T10:04:57;100675.69;;;19.56;33.35
71306;BME280;59097;46.858;18.632;2023-05-01T10:07:25;100686.41;;;19.67;34.54
71306;BME280;59097;46.858;18.632;2023-05-01T10:09:52;100685.91;;;19.42;33.86
71306;BME280;59097;46.858;18.632;2023-05-01T10:12:26;100683.22;;;19.42;34.06
71306;BME280;59097;46.858;18.632;2023-05-01T10:15:02;100670.00;;;19.85;34.51
71306;BME280;59097;46.858;18.632;2023-05-01T10:17:52;100670.00;;;19.85;34.51
71306;BME280;59097;46.858;18.632;2023-05-01T10:20:21;100664.81;;;19.95;34.67
71306;BME280;59097;46.858;18.632;2023-05-01T10:22:49;100681.03;;;19.67;35.20
71306;BME280;59097;46.858;18.632;2023-05-01T10:25:18;100651.44;;;20.17;34.48
71306;BME280;59097;46.858;18.632;2023-05-01T10:27:47;100673.66;;;20.41;34.03
71306;BME280;59097;46.858;18.632;2023-05-01T10:30:17;100673.94;;;19.94;34.54
71306;BME280;59097;46.858;18.632;2023-05-01T10:32:47;100664.31;;;19.98;33.85
71306;BME280;59097;46.858;18.632;2023-05-01T10:35:19;100662.25;;;20.72;33.62
71306;BME280;59097;46.858;18.632;2023-05-01T10:38:05;100657.31;;;19.53;34.65
71306;BME280;59097;46.858;18.632;2023-05-01T10:43:31;100660.41;;;20.06;35.61
71306;BME280;59097;46.858;18.632;2023-05-01T10:51:25;100651.19;;;20.74;34.31
71306;BME280;59097;46.858;18.632;2023-05-01T10:56:41;100648.41;;;20.14;35.07
71306;BME280;59097;46.858;18.632;2023-05-01T10:59:10;100651.28;;;20.24;35.04
71306;BME280;59097;46.858;18.632;2023-05-01T11:01:41;100648.72;;;20.17;36.07
71306;BME280;59097;46.858;18.632;2023-05-01T11:15:31;100644.09;;;20.46;35.85
71306;BME280;59097;46.858;18.632;2023-05-01T11:17:59;100636.22;;;20.44;36.94
71306;BME280;59097;46.858;18.632;2023-05-01T11:22:55;100628.19;;;20.66;36.05
71306;BME280;59097;46.858;18.632;2023-05-01T11:27:55;100620.16;;;21.14;35.46
71306;BME280;59097;46.858;18.632;2023-05-01T11:30:24;100620.16;;;21.14;35.46
71306;BME280;59097;46.858;18.632;2023-05-01T11:32:52;100607.31;;;20.56;35.82
71306;BME280;59097;46.858;18.632;2023-05-01T11:35:25;100600.25;;;20.72;36.91
71306;BME280;59097;46.858;18.632;2023-05-01T11:37:57;100604.16;;;20.86;37.11
71306;BME280;59097;46.858;18.632;2023-05-01T11:40:31;100613.59;;;20.84;37.26
71306;BME280;59097;46.858;18.632;2023-05-01T11:43:04;100601.09;;;20.56;37.88
71306;BME280;59097;46.858;18.632;2023-05-01T11:45:34;100608.44;;;20.39;37.42
71306;BME280;59097;46.858;18.632;2023-05-01T11:48:03;100607.03;;;20.20;37.55
71306;BME280;59097;46.858;18.632;2023-05-01T11:51:00;100592.38;;;20.11;37.32
71306;BME280;59097;46.858;18.632;2023-05-01T11:53:26;100592.50;;;20.21;38.85
71306;BME280;59097;46.858;18.632;2023-05-01T11:55:52;100590.72;;;20.26;38.20
71306;BME280;59097;46.858;18.632;2023-05-01T11:58:29;100579.41;;;20.46;37.60
71306;BME280;59097;46.858;18.632;2023-05-01T12:00:56;100577.47;;;20.41;37.21
71306;BME280;59097;46.858;18.632;2023-05-01T12:03:39;100581.97;;;21.22;36.71
71306;BME280;59097;46.858;18.632;2023-05-01T12:06:10;100581.97;;;21.22;36.71
71306;BME280;59097;46.858;18.632;2023-05-01T12:08:43;100575.59;;;20.63;37.21
71306;BME280;59097;46.858;18.632;2023-05-01T12:11:14;100580.66;;;20.60;38.27
71306;BME280;59097;46.858;18.632;2023-05-01T12:13:43;100542.13;;;20.21;37.55
71306;BME280;59097;46.858;18.632;2023-05-01T12:16:11;100573.28;;;20.50;37.54
71306;BME280;59097;46.858;18.632;2023-05-01T12:18:41;100571.00;;;20.42;37.46
71306;BME280;59097;46.858;18.632;2023-05-01T12:21:14;100569.75;;;20.50;38.06
71306;BME280;59097;46.858;18.632;2023-05-01T12:23:48;100567.25;;;20.65;37.97
71306;BME280;59097;46.858;18.632;2023-05-01T12:26:45;100566.06;;;20.56;37.58
71306;BME280;59097;46.858;18.632;2023-05-01T12:29:38;100541.38;;;20.64;37.14
71306;BME280;59097;46.858;18.632;2023-05-01T12:32:06;100536.38;;;20.51;36.94
71306;BME280;59097;46.858;18.632;2023-05-01T12:34:33;100543.50;;;20.40;37.99
71306;BME280;59097;46.858;18.632;2023-05-01T12:36:59;100547.56;;;20.43;37.89
71306;BME280;59097;46.858;18.632;2023-05-01T12:39:35;100540.00;;;20.40;37.48
71306;BME280;59097;46.858;18.632;2023-05-01T12:42:13;100529.47;;;21.08;37.75
71306;BME280;59097;46.858;18.632;2023-05-01T12:44:42;100529.47;;;21.08;37.75
71306;BME280;59097;46.858;18.632;2023-05-01T12:47:11;100502.34;;;20.45;37.88
71306;BME280;59097;46.858;18.632;2023-05-01T12:49:39;100516.31;;;20.63;37.78
71306;BME280;59097;46.858;18.632;2023-05-01T12:52:09;100510.16;;;20.68;37.85
71306;BME280;59097;46.858;18.632;2023-05-01T12:54:38;100505.69;;;20.57;37.60
71306;BME280;59097;46.858;18.632;2023-05-01T12:59:38;100521.41;;;20.38;38.14
71306;BME280;59097;46.858;18.632;2023-05-01T13:02:14;100506.28;;;20.37;37.85
71306;BME280;59097;46.858;18.632;2023-05-01T13:05:11;100497.97;;;20.39;38.30
71306;BME280;59097;46.858;18.632;2023-05-01T13:07:37;100501.91;;;20.53;37.83
71306;BME280;59097;46.858;18.632;2023-05-01T13:10:05;100500.94;;;20.64;37.70
71306;BME280;59097;46.858;18.632;2023-05-01T13:12:32;100489.28;;;20.85;37.61
71306;BME280;59097;46.858;18.632;2023-05-01T13:14:58;100496.50;;;20.75;37.45
71306;BME280;59097;46.858;18.632;2023-05-01T13:17:31;100491.34;;;21.00;36.45
71306;BME280;59097;46.858;18.632;2023-05-01T13:20:02;100491.34;;;21.00;36.45
71306;BME280;59097;46.858;18.632;2023-05-01T13:22:37;100481.34;;;20.47;37.85
71306;BME280;59097;46.858;18.632;2023-05-01T13:25:16;100468.34;;;20.39;37.31
71306;BME280;59097;46.858;18.632;2023-05-01T13:27:49;100477.63;;;20.53;37.98
71306;BME280;59097;46.858;18.632;2023-05-01T13:30:19;100482.13;;;20.69;38.06
71306;BME280;59097;46.858;18.632;2023-05-01T13:32:50;100483.69;;;20.65;36.68
71306;BME280;59097;46.858;18.632;2023-05-01T13:35:23;100467.28;;;20.66;36.80
71306;BME280;59097;46.858;18.632;2023-05-01T13:38:08;100458.16;;;20.73;35.97
71306;BME280;59097;46.858;18.632;2023-05-01T13:40:51;100482.13;;;20.69;34.71
71306;BME280;59097;46.858;18.632;2023-05-01T13:43:33;100460.06;;;20.72;35.72
71306;BME280;59097;46.858;18.632;2023-05-01T13:45:59;100456.25;;;20.68;36.09
71306;BME280;59097;46.858;18.632;2023-05-01T13:48:25;100461.00;;;20.88;35.97
71306;BME280;59097;46.858;18.632;2023-05-01T13:50:51;100461.75;;;20.78;36.20
71306;BME280;59097;46.858;18.632;2023-05-01T13:53:18;100461.28;;;20.86;35.92
71306;BME280;59097;46.858;18.632;2023-05-01T13:55:52;100448.75;;;21.33;35.33